Time;durP1;ratioP1;P1;durP2;ratioP2;P2;SDS_P1;SDS_P2;PMS_P1;PMS_P2;Temp;Humidity;BMP_temperature;BMP_pressure;BME280_temperature;BME280_humidity;BME280_pressure;Samples;Min_cycle;Max_cycle;Signal;HPM_P1;HPM_P2
2022/05/03 00:00:21;;;;;;;10.30;6.15;;;15.30;99.90;;;;;;4976930;28;20506;-47
2022/05/03 00:03:16;;;;;;;7.80;6.78;;;15.30;99.90;;;;;;4976765;28;20046;-46
2022/05/03 00:06:09;;;;;;;15.02;6.60;;;15.20;99.90;;;;;;4976931;28;20041;-47
2022/05/03 00:08:48;;;;;;;8.27;6.68;;;15.20;99.90;;;;;;4995249;23;20034;-52
2022/05/03 00:11:31;;;;;;;7.18;6.30;;;15.20;99.90;;;;;;4877215;29;20072;-46
2022/05/03 00:13:56;;;;;;;7.20;6.50;;;15.20;99.90;;;;;;4876999;29;20057;-49
2022/05/03 00:16:23;;;;;;;7.82;6.55;;;15.10;99.90;;;;;;4878270;29;20064;-46
2022/05/03 00:18:49;;;;;;;9.65;6.53;;;15.10;99.90;;;;;;4877964;29;20036;-43
2022/05/03 00:21:15;;;;;;;6.30;5.70;;;15.10;99.90;;;;;;4878001;29;20108;-48
2022/05/03 00:23:42;;;;;;;7.03;6.32;;;15.00;99.90;;;;;;4878313;29;20112;-44
2022/05/03 00:26:08;;;;;;;8.85;6.15;;;15.00;99.90;;;;;;4878028;29;20132;-48
2022/05/03 00:28:35;;;;;;;8.15;6.78;;;15.00;99.90;;;;;;4877962;29;20045;-46
2022/05/03 00:31:01;;;;;;;10.88;5.88;;;15.00;99.90;;;;;;4877904;29;20037;-43
2022/05/03 00:33:32;;;;;;;7.45;6.75;;;15.00;99.90;;;;;;4878261;29;20104;-47
2022/05/03 00:35:58;;;;;;;8.95;6.32;;;15.00;99.90;;;;;;4877423;29;20029;-50
2022/05/03 00:38:23;;;;;;;11.07;6.40;;;15.00;99.90;;;;;;4877364;29;20040;-51
2022/05/03 00:40:56;;;;;;;8.35;6.88;;;15.00;99.90;;;;;;4877255;29;20029;-46
2022/05/03 00:43:30;;;;;;;6.63;5.88;;;15.00;99.90;;;;;;4877533;29;20033;-49
2022/05/03 00:46:05;;;;;;;9.53;6.23;;;15.00;99.90;;;;;;4877433;29;20029;-51
2022/05/03 00:48:57;;;;;;;6.78;6.15;;;15.00;99.90;;;;;;4876961;29;20061;-48
2022/05/03 00:51:35;;;;;;;6.97;6.25;;;15.00;99.90;;;;;;4877227;29;20030;-50
2022/05/03 00:54:29;;;;;;;8.82;6.40;;;14.90;99.90;;;;;;4877532;29;20033;-45
2022/05/03 00:57:23;;;;;;;8.50;6.68;;;14.90;99.90;;;;;;4876724;29;20374;-42
2022/05/03 01:00:06;;;;;;;6.90;6.20;;;14.90;99.90;;;;;;4877283;29;20080;-48
2022/05/03 01:03:10;;;;;;;6.95;6.05;;;14.90;99.90;;;;;;4877346;29;20052;-50
2022/05/03 01:06:04;;;;;;;9.35;6.50;;;14.90;99.90;;;;;;4877071;29;20021;-47
2022/05/03 01:09:00;;;;;;;6.78;6.18;;;14.90;99.90;;;;;;4877600;29;20037;-48
2022/05/03 01:11:36;;;;;;;8.32;6.80;;;14.90;99.90;;;;;;4877185;29;20120;-47
2022/05/03 01:14:25;;;;;;;9.38;6.47;;;14.90;99.90;;;;;;4877306;29;20052;-48
2022/05/03 01:17:03;;;;;;;6.97;5.85;;;14.90;99.90;;;;;;4876858;29;20052;-43
2022/05/03 01:19:49;;;;;;;10.40;6.78;;;14.90;99.90;;;;;;4878945;29;20067;-46
2022/05/03 01:22:39;;;;;;;12.55;6.75;;;14.90;99.90;;;;;;4879449;29;20064;-47
2022/05/03 01:25:43;;;;;;;11.93;6.72;;;14.80;99.90;;;;;;4878635;29;20025;-48
2022/05/03 01:28:32;;;;;;;8.30;6.70;;;14.80;99.90;;;;;;4877987;29;20037;-46
2022/05/03 01:31:03;;;;;;;8.93;7.25;;;14.90;99.90;;;;;;4877193;29;20036;-53
2022/05/03 01:33:36;;;;;;;10.85;6.35;;;14.90;99.90;;;;;;4876847;29;20032;-46
2022/05/03 01:36:04;;;;;;;9.77;6.88;;;14.90;99.90;;;;;;4876855;29;20025;-47
2022/05/03 01:38:51;;;;;;;8.60;6.75;;;14.80;99.90;;;;;;4876285;29;20053;-43
2022/05/03 01:41:41;;;;;;;14.25;7.57;;;14.80;99.90;;;;;;4876740;29;20037;-50
2022/05/03 01:44:25;;;;;;;11.30;7.47;;;14.70;99.90;;;;;;4876766;29;20032;-52
2022/05/03 01:46:57;;;;;;;8.35;5.70;;;14.70;99.90;;;;;;4876453;29;20468;-50
2022/05/03 01:52:21;;;;;;;10.93;6.75;;;14.70;99.90;;;;;;4876483;29;20116;-46
2022/05/03 01:55:13;;;;;;;8.85;6.00;;;14.70;99.90;;;;;;4877239;29;20107;-49
2022/05/03 01:58:05;;;;;;;10.00;6.22;;;14.70;99.90;;;;;;4876422;29;20382;-45
2022/05/03 02:00:35;;;;;;;6.68;6.07;;;14.70;99.90;;;;;;4879706;29;20039;-46
2022/05/03 02:03:45;;;;;;;10.07;6.85;;;14.60;99.90;;;;;;4878235;29;20048;-46
2022/05/03 02:06:15;;;;;;;12.88;7.00;;;14.60;99.90;;;;;;4952460;29;20030;-49
2022/05/03 02:09:02;;;;;;;8.48;6.82;;;14.60;99.90;;;;;;4874111;29;20513;-50
2022/05/03 02:11:40;;;;;;;9.05;6.22;;;14.60;99.90;;;;;;4857883;29;20041;-48
2022/05/03 02:17:01;;;;;;;9.00;6.60;;;14.60;99.90;;;;;;4865060;29;20044;-43
2022/05/03 02:20:00;;;;;;;8.48;6.25;;;14.60;99.90;;;;;;4875778;29;20025;-52
2022/05/03 02:22:37;;;;;;;7.53;6.63;;;14.60;99.90;;;;;;4876221;29;20029;-48
2022/05/03 02:25:14;;;;;;;7.97;6.32;;;14.50;99.90;;;;;;4876116;29;20040;-46
2022/05/03 02:27:46;;;;;;;9.23;6.47;;;14.50;99.90;;;;;;4875662;29;20029;-46
2022/05/03 02:30:14;;;;;;;8.18;6.38;;;14.40;99.90;;;;;;4875652;29;20033;-47
2022/05/03 02:32:57;;;;;;;7.95;6.78;;;14.40;99.90;;;;;;4875822;29;20033;-45
2022/05/03 02:35:23;;;;;;;7.72;6.18;;;14.40;99.90;;;;;;4874831;29;20029;-45
2022/05/03 02:37:55;;;;;;;9.60;6.50;;;14.40;99.90;;;;;;4875475;29;20028;-50
2022/05/03 02:40:24;;;;;;;8.85;7.32;;;14.40;99.90;;;;;;4875587;29;20083;-45
2022/05/03 02:42:51;;;;;;;7.45;6.60;;;14.40;99.90;;;;;;4875801;29;20128;-45
2022/05/03 02:45:18;;;;;;;14.18;7.85;;;14.40;99.90;;;;;;4875663;29;20044;-45
2022/05/03 02:48:02;;;;;;;8.85;7.00;;;14.40;99.90;;;;;;4875264;29;20040;-41
2022/05/03 02:50:38;;;;;;;11.25;7.25;;;14.40;99.90;;;;;;4875638;29;20022;-46
2022/05/03 02:53:08;;;;;;;8.32;6.78;;;14.40;99.90;;;;;;4875281;29;20057;-46
2022/05/03 02:55:46;;;;;;;7.18;6.45;;;14.40;99.90;;;;;;4875445;29;20029;-45
2022/05/03 02:58:33;;;;;;;8.82;6.50;;;14.30;99.90;;;;;;4875297;29;20152;-46
2022/05/03 03:01:48;;;;;;;10.70;6.95;;;14.30;99.90;;;;;;4875893;28;20025;-47
2022/05/03 03:04:32;;;;;;;9.20;6.80;;;14.30;99.90;;;;;;4875526;29;20037;-47
2022/05/03 03:06:59;;;;;;;12.20;6.65;;;14.30;99.90;;;;;;4875060;29;20112;-51
2022/05/03 03:09:55;;;;;;;6.85;6.10;;;14.30;99.90;;;;;;4875242;29;20079;-48
2022/05/03 03:12:58;;;;;;;7.60;6.80;;;14.20;99.90;;;;;;4877936;29;20048;-49
2022/05/03 03:15:28;;;;;;;7.70;6.50;;;14.20;99.90;;;;;;4874261;29;20099;-46
2022/05/03 03:17:57;;;;;;;14.60;6.97;;;14.10;99.90;;;;;;4874974;29;20078;-46
2022/05/03 03:20:25;;;;;;;8.48;7.22;;;14.00;99.90;;;;;;4875087;29;20037;-44
2022/05/03 03:22:51;;;;;;;11.10;6.50;;;14.00;99.90;;;;;;4875381;29;20029;-47
2022/05/03 03:25:19;;;;;;;9.43;8.00;;;14.00;99.90;;;;;;4875375;29;20048;-49
2022/05/03 03:27:47;;;;;;;10.30;6.53;;;14.00;99.90;;;;;;4875126;29;20032;-45
2022/05/03 03:30:14;;;;;;;12.20;7.30;;;14.00;99.90;;;;;;4874696;29;20080;-46
2022/05/03 03:32:47;;;;;;;10.45;6.75;;;14.00;99.90;;;;;;4875905;29;20035;-49
2022/05/03 03:35:14;;;;;;;9.18;7.43;;;14.00;99.90;;;;;;4875575;28;20128;-46
2022/05/03 03:37:44;;;;;;;10.40;7.78;;;14.10;99.90;;;;;;4874859;29;20033;-45
2022/05/03 03:40:11;;;;;;;10.40;6.47;;;14.10;99.90;;;;;;4874970;29;20672;-47
2022/05/03 03:42:37;;;;;;;8.55;7.40;;;14.10;99.90;;;;;;4875525;28;20033;-50
2022/05/03 03:45:08;;;;;;;9.73;7.88;;;14.10;99.90;;;;;;4874958;29;20112;-51
2022/05/03 03:47:35;;;;;;;7.35;6.65;;;14.10;99.90;;;;;;4874624;29;20072;-50
2022/05/03 03:50:02;;;;;;;9.07;6.70;;;14.10;99.90;;;;;;4873635;29;20048;-52
2022/05/03 03:52:28;;;;;;;11.88;6.68;;;14.10;99.90;;;;;;4875186;29;20022;-48
2022/05/03 03:54:57;;;;;;;10.23;6.90;;;14.10;99.90;;;;;;4889304;29;20044;-47
2022/05/03 03:57:24;;;;;;;8.80;7.47;;;14.10;99.90;;;;;;4874759;29;20036;-46
2022/05/03 03:59:50;;;;;;;7.88;7.07;;;14.10;99.90;;;;;;4875019;29;20083;-45
2022/05/03 04:02:16;;;;;;;7.55;6.75;;;14.20;99.90;;;;;;4874825;29;20037;-48
2022/05/03 04:04:43;;;;;;;9.48;7.65;;;14.20;99.90;;;;;;4874808;29;20087;-47
2022/05/03 04:07:09;;;;;;;8.45;7.65;;;14.20;99.90;;;;;;4874611;29;20033;-49
2022/05/03 04:09:35;;;;;;;11.20;8.65;;;14.20;99.90;;;;;;4874550;29;20036;-45
2022/05/03 04:12:02;;;;;;;11.15;8.23;;;14.20;99.90;;;;;;4874944;29;20112;-50
2022/05/03 04:14:28;;;;;;;9.25;8.32;;;14.20;99.90;;;;;;4874590;29;20026;-46
2022/05/03 04:16:54;;;;;;;12.63;8.82;;;14.20;99.90;;;;;;4874377;29;20032;-51
2022/05/03 04:19:21;;;;;;;15.07;8.18;;;14.10;99.90;;;;;;4874686;29;20049;-43
2022/05/03 04:21:47;;;;;;;16.10;8.85;;;14.10;99.90;;;;;;4890183;29;20032;-49
2022/05/03 04:24:12;;;;;;;9.05;8.07;;;14.10;99.90;;;;;;4874662;29;20033;-47
2022/05/03 04:26:38;;;;;;;9.45;8.45;;;14.00;99.90;;;;;;4876518;29;20031;-52
2022/05/03 04:29:04;;;;;;;14.02;8.93;;;14.00;99.90;;;;;;4877358;29;20103;-42
2022/05/03 04:31:34;;;;;;;13.93;8.30;;;13.90;99.90;;;;;;4877485;28;20033;-48
2022/05/03 04:34:03;;;;;;;9.50;7.97;;;13.90;99.90;;;;;;4958613;28;20044;-49
2022/05/03 04:36:33;;;;;;;10.75;8.23;;;13.80;99.90;;;;;;4877726;29;20444;-47
2022/05/03 04:39:00;;;;;;;10.52;8.20;;;13.80;99.90;;;;;;4877032;29;20029;-48
2022/05/03 04:41:26;;;;;;;8.77;7.72;;;13.70;99.90;;;;;;4877621;29;20021;-41
2022/05/03 04:43:52;;;;;;;9.40;8.38;;;13.70;99.90;;;;;;4877633;29;20037;-46
2022/05/03 04:46:19;;;;;;;11.98;8.55;;;13.60;99.90;;;;;;4877085;29;20051;-50
2022/05/03 04:48:44;;;;;;;11.93;8.73;;;13.60;99.90;;;;;;4880094;29;20401;-50
2022/05/03 04:51:18;;;;;;;12.35;9.35;;;13.50;99.90;;;;;;4878892;29;20250;-46
2022/05/03 04:53:44;;;;;;;11.38;8.98;;;13.50;99.90;;;;;;4877041;29;20029;-43
2022/05/03 04:56:19;;;;;;;16.08;8.98;;;13.50;99.90;;;;;;4877355;29;20412;-49
2022/05/03 04:58:46;;;;;;;9.75;8.75;;;13.50;99.90;;;;;;4876968;29;20036;-49
2022/05/03 05:01:12;;;;;;;12.60;8.40;;;13.50;99.90;;;;;;4877369;29;20068;-50
2022/05/03 05:03:38;;;;;;;11.10;8.52;;;13.60;99.90;;;;;;4876976;29;20032;-44
2022/05/03 05:06:03;;;;;;;9.85;8.55;;;13.50;99.90;;;;;;4877218;29;20413;-46
2022/05/03 05:08:29;;;;;;;12.48;9.07;;;13.50;99.90;;;;;;4876893;29;20021;-50
2022/05/03 05:10:54;;;;;;;9.63;8.70;;;13.50;99.90;;;;;;4877229;28;20033;-46
2022/05/03 05:13:20;;;;;;;9.85;8.40;;;13.50;99.90;;;;;;4877168;29;20037;-49
2022/05/03 05:15:46;;;;;;;12.48;9.00;;;13.60;99.90;;;;;;4877186;29;20123;-47
2022/05/03 05:18:13;;;;;;;10.85;9.35;;;13.60;99.90;;;;;;4876564;28;20385;-46
2022/05/03 05:20:38;;;;;;;10.43;8.80;;;13.60;99.90;;;;;;4876986;29;20497;-49
2022/05/03 05:23:04;;;;;;;13.82;8.98;;;13.50;99.90;;;;;;4877072;29;20044;-45
2022/05/03 05:25:29;;;;;;;12.07;9.27;;;13.50;99.90;;;;;;4876666;29;20115;-46
2022/05/03 05:27:55;;;;;;;11.25;9.27;;;13.50;99.90;;;;;;4876072;29;20044;-49
2022/05/03 05:30:20;;;;;;;15.82;9.27;;;13.60;99.90;;;;;;4876978;29;20029;-47
2022/05/03 05:32:46;;;;;;;15.43;9.23;;;13.70;99.90;;;;;;4956917;28;20029;-47
2022/05/03 05:35:12;;;;;;;13.30;9.43;;;13.70;99.90;;;;;;4876923;29;20025;-47
2022/05/03 05:37:37;;;;;;;10.77;8.93;;;13.70;99.90;;;;;;4875191;29;20029;-47
2022/05/03 05:40:03;;;;;;;18.00;8.85;;;13.60;99.90;;;;;;4876875;29;20108;-42
2022/05/03 05:42:29;;;;;;;12.50;9.05;;;13.60;99.90;;;;;;4876691;29;20029;-43
2022/05/03 05:44:55;;;;;;;18.08;9.10;;;13.70;99.90;;;;;;4876664;29;20037;-47
2022/05/03 05:47:22;;;;;;;16.90;9.65;;;13.70;99.90;;;;;;4876097;29;20033;-45
2022/05/03 05:49:47;;;;;;;13.85;8.70;;;13.70;99.90;;;;;;4876674;29;20080;-46
2022/05/03 05:54:57;;;;;;;16.83;8.07;;;13.80;99.90;;;;;;4876721;29;20088;-42
2022/05/03 05:57:23;;;;;;;13.10;9.02;;;13.80;99.90;;;;;;4957155;28;20485;-47
2022/05/03 05:59:48;;;;;;;11.40;9.45;;;13.80;99.90;;;;;;4875224;29;20036;-51
2022/05/03 06:02:16;;;;;;;12.15;9.60;;;13.80;99.90;;;;;;4876220;29;20037;-49
2022/05/03 06:04:42;;;;;;;16.65;9.38;;;13.90;99.90;;;;;;4876010;29;20029;-46
2022/05/03 06:07:08;;;;;;;10.32;8.48;;;13.90;99.90;;;;;;4876125;29;20036;-47
2022/05/03 06:09:34;;;;;;;12.02;9.13;;;13.90;99.90;;;;;;4919212;23;20098;-48
2022/05/03 06:11:59;;;;;;;10.75;8.52;;;13.90;99.90;;;;;;4973807;28;20035;-47
2022/05/03 06:14:25;;;;;;;10.77;8.80;;;14.00;99.90;;;;;;4990946;28;20061;-48
2022/05/03 06:16:55;;;;;;;12.63;9.15;;;14.00;99.90;;;;;;4975681;28;20531;-46
2022/05/03 06:19:21;;;;;;;10.15;8.45;;;14.00;99.90;;;;;;4982959;28;20053;-48
2022/05/03 06:21:47;;;;;;;9.73;7.97;;;14.10;99.90;;;;;;4996023;28;20023;-46
2022/05/03 06:24:13;;;;;;;14.80;10.52;;;14.00;99.90;;;;;;4987829;28;20565;-45
2022/05/03 06:26:38;;;;;;;11.10;9.68;;;14.10;99.90;;;;;;4977137;28;20054;-43
2022/05/03 06:29:08;;;;;;;9.85;8.77;;;14.20;99.90;;;;;;4975624;28;20126;-46
2022/05/03 06:31:44;;;;;;;12.55;8.63;;;14.30;99.90;;;;;;4976984;28;20069;-48
2022/05/03 06:34:10;;;;;;;9.13;8.23;;;14.30;99.90;;;;;;4977206;28;20106;-48
2022/05/03 06:36:36;;;;;;;13.73;8.15;;;14.40;99.90;;;;;;4984834;28;20291;-49
2022/05/03 06:39:05;;;;;;;9.82;8.23;;;14.60;99.90;;;;;;4994865;28;20331;-44
2022/05/03 06:41:32;;;;;;;12.48;8.85;;;14.70;99.90;;;;;;4974864;28;20097;-46
2022/05/03 06:43:58;;;;;;;9.77;8.75;;;14.80;99.90;;;;;;4975668;28;20071;-45
2022/05/03 06:46:24;;;;;;;14.55;8.52;;;14.70;99.90;;;;;;4976445;28;20023;-47
2022/05/03 06:48:50;;;;;;;8.40;7.57;;;14.80;99.90;;;;;;4974586;28;20125;-51
2022/05/03 06:51:16;;;;;;;12.43;8.32;;;14.90;99.90;;;;;;4977469;28;20087;-47
2022/05/03 06:53:41;;;;;;;11.70;8.05;;;14.90;99.90;;;;;;4978186;28;20527;-46
2022/05/03 06:56:07;;;;;;;11.98;8.82;;;14.70;99.90;;;;;;4977364;28;20058;-49
2022/05/03 06:58:33;;;;;;;16.63;8.38;;;14.70;99.90;;;;;;4977036;28;20031;-46
2022/05/03 07:01:09;;;;;;;11.30;8.57;;;14.80;99.90;;;;;;4977086;28;20075;-45
2022/05/03 07:03:36;;;;;;;9.05;8.15;;;14.80;99.90;;;;;;4976603;28;20031;-46
2022/05/03 07:06:02;;;;;;;12.55;9.45;;;15.00;99.90;;;;;;4977350;28;20026;-47
2022/05/03 07:08:27;;;;;;;16.38;8.35;;;15.00;99.90;;;;;;4977227;28;20038;-52
2022/05/03 07:10:53;;;;;;;14.63;8.50;;;15.10;99.90;;;;;;4975603;28;20031;-49
2022/05/03 07:13:23;;;;;;;15.02;7.97;;;15.30;99.90;;;;;;4976532;28;20026;-45
2022/05/03 07:15:56;;;;;;;11.88;7.78;;;15.40;99.90;;;;;;4976329;28;20031;-47
2022/05/03 07:23:53;;;;;;;11.35;7.80;;;15.70;99.90;;;;;;4976470;28;20034;-45
2022/05/03 07:26:19;;;;;;;10.23;7.13;;;15.50;99.90;;;;;;4976276;28;20060;-47
2022/05/03 07:28:48;;;;;;;10.18;7.30;;;15.40;99.90;;;;;;4975975;28;20041;-51
2022/05/03 07:31:17;;;;;;;9.63;7.57;;;15.80;99.90;;;;;;4976802;28;20019;-48
2022/05/03 07:33:43;;;;;;;11.35;7.05;;;15.80;99.90;;;;;;4977335;28;20160;-46
2022/05/03 07:36:10;;;;;;;10.75;7.57;;;15.80;99.90;;;;;;4976978;28;20510;-49
2022/05/03 07:38:36;;;;;;;8.88;7.97;;;15.90;99.60;;;;;;4991879;28;20030;-49
2022/05/03 07:41:02;;;;;;;9.23;7.43;;;16.00;99.90;;;;;;4976707;28;20030;-47
2022/05/03 07:43:27;;;;;;;12.13;8.00;;;16.00;99.70;;;;;;4977400;28;20027;-48
2022/05/03 07:45:54;;;;;;;10.60;7.53;;;16.00;99.70;;;;;;4977388;28;20057;-49
2022/05/03 07:48:20;;;;;;;11.43;7.85;;;16.10;99.50;;;;;;4977184;28;20030;-46
2022/05/03 07:50:46;;;;;;;14.40;6.85;;;16.20;99.30;;;;;;4977214;28;20371;-46
2022/05/03 07:53:12;;;;;;;11.68;7.50;;;16.30;99.10;;;;;;4975894;28;20022;-48
2022/05/03 07:55:37;;;;;;;8.00;6.82;;;16.40;99.20;;;;;;4976093;28;20070;-49
2022/05/03 07:58:03;;;;;;;11.80;7.72;;;16.50;98.90;;;;;;4974016;28;20147;-48
2022/05/03 08:00:28;;;;;;;8.95;7.57;;;16.60;98.60;;;;;;4980256;28;20041;-47
2022/05/03 08:02:54;;;;;;;8.70;6.35;;;16.60;99.00;;;;;;4992841;28;20033;-49
2022/05/03 08:05:20;;;;;;;11.13;6.93;;;16.90;98.60;;;;;;4977855;28;20110;-50
2022/05/03 08:07:46;;;;;;;10.43;6.75;;;17.00;98.30;;;;;;4976454;28;20027;-47
2022/05/03 08:10:12;;;;;;;7.53;6.70;;;17.20;98.00;;;;;;4989232;28;20029;-49
2022/05/03 08:12:38;;;;;;;10.68;7.28;;;17.30;98.00;;;;;;4980636;28;20039;-48
2022/05/03 08:15:04;;;;;;;8.13;6.78;;;17.50;97.60;;;;;;4978278;28;20042;-48
2022/05/03 08:17:31;;;;;;;9.63;6.93;;;17.70;97.40;;;;;;4977645;28;20042;-48
2022/05/03 08:19:57;;;;;;;8.77;6.85;;;17.70;97.00;;;;;;4977629;28;20030;-48
2022/05/03 08:22:24;;;;;;;9.05;7.78;;;17.90;96.80;;;;;;4970205;28;20461;-48
2022/05/03 08:24:51;;;;;;;7.10;6.40;;;17.90;96.10;;;;;;4986020;28;20462;-47
2022/05/03 08:27:17;;;;;;;15.93;6.38;;;17.70;96.70;;;;;;4993618;28;20038;-47
2022/05/03 08:29:42;;;;;;;9.63;7.20;;;17.80;97.00;;;;;;4975836;28;20029;-48
2022/05/03 08:32:09;;;;;;;9.07;6.53;;;18.10;96.00;;;;;;4975988;28;20035;-47
2022/05/03 08:34:35;;;;;;;12.43;7.00;;;18.20;96.20;;;;;;4975874;28;20046;-45
2022/05/03 08:42:29;;;;;;;8.35;7.13;;;18.10;97.20;;;;;;4976409;28;20037;-47
2022/05/03 08:45:00;;;;;;;8.15;6.47;;;18.40;96.70;;;;;;4975729;28;20107;-48
2022/05/03 08:47:28;;;;;;;9.20;6.60;;;18.50;96.30;;;;;;4975493;28;20041;-49
2022/05/03 08:49:56;;;;;;;10.38;6.47;;;18.50;95.90;;;;;;4975673;28;20487;-46
2022/05/03 08:52:23;;;;;;;9.82;6.70;;;18.70;95.60;;;;;;4977030;28;20442;-48
2022/05/03 08:54:50;;;;;;;14.23;6.78;;;18.70;95.70;;;;;;4995043;28;20063;-45
2022/05/03 08:57:18;;;;;;;10.65;7.07;;;18.70;95.90;;;;;;4977109;28;20093;-46
2022/05/03 08:59:48;;;;;;;8.82;6.75;;;18.80;95.90;;;;;;4975686;28;20339;-46
2022/05/03 09:02:13;;;;;;;12.40;7.05;;;18.80;95.90;;;;;;4975756;28;20070;-47
2022/05/03 09:04:39;;;;;;;8.15;6.18;;;18.90;95.70;;;;;;4975737;28;20053;-46
2022/05/03 09:07:22;;;;;;;9.13;6.68;;;18.90;95.40;;;;;;4974934;28;20033;-44
2022/05/03 09:09:49;;;;;;;11.80;6.63;;;19.00;95.50;;;;;;4975354;28;20418;-44
2022/05/03 09:12:24;;;;;;;8.45;6.45;;;18.90;95.40;;;;;;4974136;28;20505;-47
2022/05/03 09:14:50;;;;;;;8.70;5.57;;;18.90;96.30;;;;;;4975142;28;20066;-46
2022/05/03 09:17:53;;;;;;;8.43;6.60;;;19.00;96.00;;;;;;4974967;28;20057;-46
2022/05/03 09:25:55;;;;;;;8.00;6.43;;;19.90;94.90;;;;;;4975375;28;20093;-49
2022/05/03 09:28:23;;;;;;;8.88;6.28;;;20.10;94.10;;;;;;4973337;28;20078;-47
2022/05/03 09:30:50;;;;;;;20.88;15.60;;;20.10;93.90;;;;;;4974976;28;20078;-47
2022/05/03 09:33:19;;;;;;;57.97;40.58;;;20.00;93.30;;;;;;4974761;28;20035;-56
2022/05/03 09:35:46;;;;;;;7.78;6.22;;;19.80;93.90;;;;;;4975086;28;20015;-49
2022/05/03 09:38:11;;;;;;;11.55;6.82;;;19.80;93.30;;;;;;4974643;28;20110;-49
2022/05/03 09:40:42;;;;;;;9.45;6.03;;;19.80;93.60;;;;;;4974848;28;20113;-49
2022/05/03 09:43:08;;;;;;;9.98;6.35;;;19.80;93.80;;;;;;4975001;28;20054;-48
2022/05/03 09:45:34;;;;;;;6.35;5.75;;;19.80;93.70;;;;;;4974842;28;20031;-45
2022/05/03 09:48:00;;;;;;;10.15;5.60;;;19.60;93.30;;;;;;4993759;28;20058;-45
2022/05/03 09:50:29;;;;;;;10.15;5.80;;;19.50;93.70;;;;;;4994128;28;20096;-45
2022/05/03 09:52:55;;;;;;;6.13;5.50;;;19.50;93.60;;;;;;4993811;28;20022;-45
2022/05/03 09:55:36;;;;;;;9.20;5.70;;;19.40;93.60;;;;;;4993858;28;20097;-46
2022/05/03 09:58:06;;;;;;;5.85;5.28;;;19.50;93.60;;;;;;4991296;28;20026;-46
2022/05/03 10:00:33;;;;;;;6.90;6.03;;;19.70;93.70;;;;;;4974747;28;20045;-46
2022/05/03 10:03:04;;;;;;;8.52;5.32;;;19.90;93.20;;;;;;4974619;28;20515;-49
2022/05/03 10:05:30;;;;;;;6.47;5.30;;;19.90;93.20;;;;;;4974759;28;20037;-51
2022/05/03 10:07:56;;;;;;;10.18;5.47;;;20.00;93.30;;;;;;4974172;28;20034;-50
2022/05/03 10:10:24;;;;;;;7.55;6.05;;;20.40;93.30;;;;;;4974335;28;20078;-49
2022/05/03 10:12:54;;;;;;;8.38;5.70;;;20.30;92.60;;;;;;4974400;28;20394;-48
2022/05/03 10:21:35;;;;;;;7.82;5.55;;;19.70;92.80;;;;;;4950547;28;20034;-48
2022/05/03 10:24:11;;;;;;;7.63;5.35;;;19.80;93.30;;;;;;4973830;28;20030;-50
2022/05/03 10:26:52;;;;;;;11.32;6.13;;;19.90;92.70;;;;;;4957394;28;20113;-48
2022/05/03 10:29:22;;;;;;;8.73;5.85;;;20.00;92.80;;;;;;4973730;28;20055;-49
2022/05/03 10:31:56;;;;;;;6.63;5.60;;;20.10;93.50;;;;;;4974046;28;20030;-50
2022/05/03 10:34:59;;;;;;;12.27;5.53;;;20.30;93.30;;;;;;4973943;28;20498;-48
2022/05/03 10:37:31;;;;;;;7.20;4.20;;;20.60;92.00;;;;;;4913990;29;20072;-48
2022/05/03 10:39:59;;;;;;;8.23;4.50;;;20.50;92.30;;;;;;4965292;28;20031;-47
2022/05/03 10:42:30;;;;;;;8.55;4.88;;;20.20;91.70;;;;;;4973847;28;20019;-47
2022/05/03 10:45:10;;;;;;;21.90;14.98;;;20.00;91.80;;;;;;4973884;28;20037;-47
2022/05/03 10:47:49;;;;;;;9.40;6.65;;;20.20;92.20;;;;;;4973414;28;20023;-47
2022/05/03 10:50:15;;;;;;;5.63;5.13;;;20.30;91.50;;;;;;4973527;28;20074;-51
2022/05/03 10:53:05;;;;;;;6.95;4.68;;;20.40;91.30;;;;;;4973624;28;20022;-48
2022/05/03 10:55:35;;;;;;;7.97;5.15;;;20.30;91.10;;;;;;4973348;28;20513;-49
2022/05/03 10:58:40;;;;;;;6.78;4.50;;;20.30;91.20;;;;;;4973180;28;20023;-50
2022/05/03 11:01:19;;;;;;;8.38;4.40;;;20.20;92.10;;;;;;4913732;29;20453;-48
2022/05/03 11:03:48;;;;;;;4.78;4.30;;;20.30;91.50;;;;;;4914153;29;20399;-47
2022/05/03 11:06:19;;;;;;;8.18;4.28;;;20.50;91.30;;;;;;4948646;28;20039;-50
2022/05/03 11:11:47;;;;;;;5.25;4.40;;;20.60;91.80;;;;;;4972496;28;20030;-51
2022/05/03 11:14:17;;;;;;;4.27;3.97;;;20.70;91.30;;;;;;4973110;28;20432;-48
2022/05/03 11:16:44;;;;;;;6.40;4.57;;;20.60;90.50;;;;;;4972865;28;20030;-48
2022/05/03 11:19:11;;;;;;;5.40;4.90;;;20.60;91.00;;;;;;4973097;28;20100;-50
2022/05/03 11:21:38;;;;;;;7.32;4.95;;;20.60;90.90;;;;;;4973689;28;20022;-52
2022/05/03 11:24:04;;;;;;;5.95;5.03;;;20.60;91.00;;;;;;4973256;28;20054;-47
2022/05/03 11:26:30;;;;;;;7.03;4.55;;;20.60;90.80;;;;;;4973218;28;20077;-46
2022/05/03 11:29:02;;;;;;;5.28;4.43;;;20.60;91.20;;;;;;4973002;28;20494;-48
2022/05/03 11:31:28;;;;;;;7.57;5.15;;;20.30;90.90;;;;;;4973666;28;20023;-50
2022/05/03 11:33:58;;;;;;;7.95;4.40;;;20.40;91.60;;;;;;4973036;28;20023;-50
2022/05/03 11:36:26;;;;;;;6.60;4.38;;;20.50;91.90;;;;;;4972108;28;20483;-49
2022/05/03 11:38:54;;;;;;;6.35;3.92;;;20.60;91.60;;;;;;4972943;28;20058;-50
2022/05/03 11:41:25;;;;;;;7.47;4.25;;;20.70;91.50;;;;;;4972878;28;20039;-50
2022/05/03 11:43:51;;;;;;;6.00;5.35;;;20.80;91.50;;;;;;4972904;28;20098;-52
2022/05/03 11:46:18;;;;;;;7.00;4.53;;;20.80;90.10;;;;;;4972700;28;20023;-50
2022/05/03 11:48:45;;;;;;;8.32;4.57;;;20.70;90.10;;;;;;4972614;28;20034;-46
2022/05/03 11:56:47;;;;;;;6.68;5.47;;;20.70;90.30;;;;;;4972851;28;20042;-50
2022/05/03 11:59:14;;;;;;;8.52;5.63;;;20.80;90.70;;;;;;4972613;28;20113;-48
2022/05/03 12:01:40;;;;;;;18.42;13.48;;;20.50;89.90;;;;;;4972845;28;20057;-49
2022/05/03 12:04:08;;;;;;;48.35;35.92;;;20.40;90.30;;;;;;4972639;28;20027;-51
2022/05/03 12:06:45;;;;;;;81.50;57.58;;;20.40;90.80;;;;;;4972469;28;20426;-47
2022/05/03 12:09:18;;;;;;;7.03;5.35;;;20.60;90.50;;;;;;4972453;28;20123;-49
2022/05/03 12:14:42;;;;;;;5.97;3.83;;;20.70;90.10;;;;;;4972310;28;20030;-51
2022/05/03 12:17:08;;;;;;;5.57;4.40;;;20.70;90.10;;;;;;4971560;28;20026;-52
2022/05/03 12:19:35;;;;;;;4.65;4.25;;;20.80;87.80;;;;;;4972442;28;20054;-52
2022/05/03 12:22:30;;;;;;;5.15;3.92;;;20.60;88.30;;;;;;4972045;28;20501;-50
2022/05/03 12:24:56;;;;;;;5.77;3.73;;;20.70;89.20;;;;;;4968836;28;20031;-49
2022/05/03 12:27:24;;;;;;;6.03;3.80;;;20.70;88.00;;;;;;4970958;28;20085;-50
2022/05/03 12:29:50;;;;;;;9.32;4.35;;;20.90;89.40;;;;;;4971814;28;20023;-50
2022/05/03 12:32:18;;;;;;;10.77;4.22;;;21.10;87.80;;;;;;4971656;28;20027;-48
2022/05/03 12:34:58;;;;;;;6.03;4.20;;;21.00;87.50;;;;;;4972253;28;20031;-48
2022/05/03 12:37:24;;;;;;;10.50;4.68;;;21.00;87.90;;;;;;4970537;28;20022;-48
2022/05/03 12:39:49;;;;;;;7.65;4.45;;;21.00;86.60;;;;;;4972121;28;20449;-48
2022/05/03 12:42:15;;;;;;;5.18;4.15;;;21.00;87.00;;;;;;4972215;28;20094;-49
2022/05/03 12:44:52;;;;;;;7.15;4.00;;;21.10;86.90;;;;;;4972381;28;20364;-47
2022/05/03 12:47:18;;;;;;;4.85;4.35;;;21.20;86.20;;;;;;4973702;28;20521;-49
2022/05/03 12:49:44;;;;;;;4.40;3.97;;;21.30;83.40;;;;;;4975659;28;20054;-49
2022/05/03 12:52:10;;;;;;;22.58;17.58;;;21.20;83.50;;;;;;4990616;28;20031;-50
2022/05/03 12:54:41;;;;;;;6.55;5.47;;;21.20;83.20;;;;;;4975562;28;20030;-49
2022/05/03 12:59:51;;;;;;;8.10;4.55;;;21.00;83.70;;;;;;4975942;28;20105;-48
2022/05/03 13:02:17;;;;;;;8.02;4.18;;;20.80;83.20;;;;;;4975452;28;20517;-49
2022/05/03 13:04:42;;;;;;;6.97;3.83;;;20.80;83.70;;;;;;4975492;28;20394;-50
2022/05/03 13:07:08;;;;;;;4.70;4.07;;;20.80;83.10;;;;;;4974875;28;20235;-51
2022/05/03 13:09:33;;;;;;;7.78;3.47;;;20.90;83.50;;;;;;4975026;28;20046;-51
2022/05/03 13:12:00;;;;;;;7.80;3.60;;;21.20;83.60;;;;;;4974950;28;20085;-50
2022/05/03 13:14:26;;;;;;;5.43;3.75;;;21.30;83.20;;;;;;4975284;28;20479;-49
2022/05/03 13:16:52;;;;;;;5.75;4.20;;;21.20;83.90;;;;;;4974797;28;20470;-46
2022/05/03 13:19:18;;;;;;;3.92;3.58;;;21.20;81.90;;;;;;4975110;28;20033;-49
2022/05/03 13:21:44;;;;;;;6.15;3.92;;;21.20;82.10;;;;;;4975254;28;20027;-48
2022/05/03 13:24:12;;;;;;;4.45;3.80;;;21.30;81.10;;;;;;4975154;28;20027;-50
2022/05/03 13:26:39;;;;;;;5.78;5.07;;;21.20;82.40;;;;;;4975006;28;20034;-49
2022/05/03 13:29:13;;;;;;;5.32;4.18;;;21.30;81.50;;;;;;4974463;28;20023;-48
2022/05/03 13:31:39;;;;;;;6.43;4.23;;;21.30;81.30;;;;;;4974605;28;20100;-49
2022/05/03 13:34:06;;;;;;;8.23;4.50;;;21.30;80.60;;;;;;4974772;28;20266;-46
2022/05/03 13:42:00;;;;;;;10.90;8.13;;;21.10;82.00;;;;;;4975129;28;20089;-51
2022/05/03 13:44:26;;;;;;;5.57;5.03;;;21.20;82.60;;;;;;4974682;28;20434;-49
2022/05/03 13:46:52;;;;;;;6.10;4.10;;;21.20;81.30;;;;;;4974470;28;20137;-48
2022/05/03 13:49:19;;;;;;;4.80;4.05;;;21.20;81.70;;;;;;4974508;28;20068;-48
2022/05/03 13:51:45;;;;;;;9.52;4.60;;;21.30;81.70;;;;;;4974616;28;20462;-48